Time;durP1;ratioP1;P1;durP2;ratioP2;P2;SDS_P1;SDS_P2;PMS_P1;PMS_P2;Temp;Humidity;BMP_temperature;BMP_pressure;BME280_temperature;BME280_humidity;BME280_pressure;Samples;Min_cycle;Max_cycle;Signal;HPM_P1;HPM_P2
2021/11/14 00:00:26;;;;;;;;;;;9.90;99.90;;;;;;5121591;27;20030;-75
2021/11/14 00:02:53;;;;;;;;;;;9.90;99.90;;;;;;5118212;27;20385;-76
2021/11/14 00:05:22;;;;;;;;;;;9.90;99.90;;;;;;5121728;27;19924;-75
2021/11/14 00:07:48;;;;;;;;;;;9.90;99.90;;;;;;5112317;28;20034;-75
2021/11/14 00:10:15;;;;;;;;;;;9.90;99.90;;;;;;5114367;27;19924;-76
2021/11/14 00:12:42;;;;;;;;;;;9.90;99.90;;;;;;5110591;27;19934;-76
2021/11/14 00:15:09;;;;;;;;;;;9.90;99.90;;;;;;5115177;27;19927;-75
2021/11/14 00:17:36;;;;;;;;;;;9.90;99.90;;;;;;5106307;27;19923;-75
2021/11/14 00:20:04;;;;;;;;;;;9.90;99.90;;;;;;5111740;27;19940;-74
2021/11/14 00:22:32;;;;;;;;;;;9.90;99.90;;;;;;5110787;28;19923;-75
2021/11/14 00:25:00;;;;;;;;;;;9.90;99.90;;;;;;5120925;27;19923;-76
2021/11/14 00:27:27;;;;;;;;;;;9.90;99.90;;;;;;5112416;28;19977;-76
2021/11/14 00:29:54;;;;;;;;;;;9.90;99.90;;;;;;5113559;27;19923;-75
2021/11/14 00:32:21;;;;;;;;;;;9.90;99.90;;;;;;5134085;27;19924;-76
2021/11/14 00:34:50;;;;;;;;;;;9.90;99.90;;;;;;5116476;27;19931;-74
2021/11/14 00:37:16;;;;;;;;;;;10.00;99.90;;;;;;5131624;27;20015;-75
2021/11/14 00:39:44;;;;;;;;;;;9.90;99.90;;;;;;5112861;27;19923;-75
2021/11/14 00:42:11;;;;;;;;;;;10.00;99.90;;;;;;5113766;27;19924;-75
2021/11/14 00:44:38;;;;;;;;;;;10.00;99.90;;;;;;5113444;27;19923;-75
2021/11/14 00:47:05;;;;;;;;;;;10.00;99.90;;;;;;5114669;27;19930;-75
2021/11/14 00:49:31;;;;;;;;;;;10.00;99.90;;;;;;5113340;27;19924;-75
2021/11/14 00:51:58;;;;;;;;;;;10.00;99.90;;;;;;5115098;27;19923;-74
2021/11/14 00:54:25;;;;;;;;;;;10.00;99.90;;;;;;5109756;27;20408;-75
2021/11/14 00:56:53;;;;;;;;;;;10.10;99.90;;;;;;5111325;28;19946;-75
2021/11/14 00:59:19;;;;;;;;;;;10.10;99.90;;;;;;5113118;28;19930;-75
2021/11/14 01:01:46;;;;;;;;;;;10.10;99.90;;;;;;5131363;27;20014;-74
2021/11/14 01:04:13;;;;;;;;;;;10.10;99.90;;;;;;5115313;28;19946;-74
2021/11/14 01:06:39;;;;;;;;;;;10.10;99.90;;;;;;5118507;27;20018;-74
2021/11/14 01:09:07;;;;;;;;;;;10.20;99.90;;;;;;5109180;27;20003;-74
2021/11/14 01:11:33;;;;;;;;;;;10.10;99.90;;;;;;5118652;27;19924;-74
2021/11/14 01:14:01;;;;;;;;;;;10.10;99.90;;;;;;5128060;28;19930;-74
2021/11/14 01:16:28;;;;;;;;;;;10.20;99.90;;;;;;5114734;28;19924;-74
2021/11/14 01:18:55;;;;;;;;;;;10.10;99.90;;;;;;5111469;28;19977;-74
2021/11/14 01:21:24;;;;;;;;;;;10.20;99.90;;;;;;5120931;28;19930;-74
2021/11/14 01:23:53;;;;;;;;;;;10.20;99.90;;;;;;5115282;28;19923;-73
2021/11/14 01:26:20;;;;;;;;;;;10.20;99.90;;;;;;5111580;28;19945;-74
2021/11/14 01:28:47;;;;;;;;;;;10.10;99.90;;;;;;5111965;28;20408;-74
2021/11/14 01:31:15;;;;;;;;;;;10.20;99.90;;;;;;5119588;28;20389;-74
2021/11/14 01:33:41;;;;;;;;;;;10.10;99.90;;;;;;5126318;28;19924;-74
2021/11/14 01:36:08;;;;;;;;;;;10.20;99.90;;;;;;5127182;28;19923;-74
2021/11/14 01:38:35;;;;;;;;;;;10.10;99.90;;;;;;5126978;28;19924;-73
2021/11/14 01:41:02;;;;;;;;;;;10.20;99.90;;;;;;5109110;28;19930;-74
2021/11/14 01:43:31;;;;;;;;;;;10.20;99.90;;;;;;5120753;28;19930;-73
2021/11/14 01:45:58;;;;;;;;;;;10.20;99.90;;;;;;5109921;28;19927;-74
2021/11/14 01:48:26;;;;;;;;;;;10.20;99.90;;;;;;5125310;28;19929;-74
2021/11/14 01:50:53;;;;;;;;;;;10.20;99.90;;;;;;5114247;28;19934;-74
2021/11/14 01:53:20;;;;;;;;;;;10.20;99.90;;;;;;5109738;28;20378;-73
2021/11/14 01:55:50;;;;;;;;;;;10.20;99.90;;;;;;5122204;28;19976;-73
2021/11/14 01:58:18;;;;;;;;;;;10.10;99.90;;;;;;5120248;28;19930;-74
2021/11/14 02:00:46;;;;;;;;;;;10.10;99.90;;;;;;5111817;28;19930;-73
2021/11/14 02:03:13;;;;;;;;;;;10.10;99.90;;;;;;5126557;27;20519;-73
2021/11/14 02:05:41;;;;;;;;;;;10.10;99.90;;;;;;5123858;27;19923;-74
2021/11/14 02:08:09;;;;;;;;;;;10.00;99.90;;;;;;5115424;27;20379;-73
2021/11/14 02:10:36;;;;;;;;;;;10.00;99.90;;;;;;5113740;28;19923;-73
2021/11/14 02:13:03;;;;;;;;;;;10.00;99.90;;;;;;5114760;28;20286;-74
2021/11/14 02:15:30;;;;;;;;;;;10.00;99.90;;;;;;5113108;27;19923;-73
2021/11/14 02:17:56;;;;;;;;;;;10.10;99.90;;;;;;5120802;27;19930;-74
2021/11/14 02:20:25;;;;;;;;;;;10.10;99.90;;;;;;5131656;27;20002;-74
2021/11/14 02:22:52;;;;;;;;;;;10.00;99.90;;;;;;5126460;27;20022;-74
2021/11/14 02:25:20;;;;;;;;;;;10.00;99.90;;;;;;5113598;27;19931;-74
2021/11/14 02:27:48;;;;;;;;;;;9.90;99.90;;;;;;5114256;28;19923;-73
2021/11/14 02:30:15;;;;;;;;;;;9.90;99.90;;;;;;5115635;27;19923;-74
2021/11/14 02:32:42;;;;;;;;;;;9.90;99.90;;;;;;5115621;28;19931;-73
2021/11/14 02:35:09;;;;;;;;;;;9.90;99.90;;;;;;5108196;27;20018;-74
2021/11/14 02:37:37;;;;;;;;;;;9.90;99.90;;;;;;5135204;27;19929;-72
2021/11/14 02:40:04;;;;;;;;;;;9.90;99.90;;;;;;5112753;27;19924;-73
2021/11/14 02:42:31;;;;;;;;;;;9.90;99.90;;;;;;5114937;27;19952;-73
2021/11/14 02:44:58;;;;;;;;;;;9.90;99.90;;;;;;5114763;27;19923;-73
2021/11/14 02:47:24;;;;;;;;;;;10.00;99.90;;;;;;5115325;27;19924;-73
2021/11/14 02:49:52;;;;;;;;;;;10.00;99.90;;;;;;5119775;27;19924;-74
2021/11/14 02:52:19;;;;;;;;;;;9.90;99.90;;;;;;5121553;27;19999;-74
2021/11/14 02:54:47;;;;;;;;;;;9.90;99.90;;;;;;5120380;27;19923;-75
2021/11/14 02:57:13;;;;;;;;;;;9.90;99.90;;;;;;5125089;27;20010;-75
2021/11/14 02:59:40;;;;;;;;;;;9.90;99.90;;;;;;5113251;27;19924;-75
2021/11/14 03:02:07;;;;;;;;;;;9.80;99.90;;;;;;5111628;28;19935;-75
2021/11/14 03:04:33;;;;;;;;;;;9.90;99.90;;;;;;5119433;27;20014;-75
2021/11/14 03:07:00;;;;;;;;;;;9.90;99.90;;;;;;5128520;27;20390;-75
2021/11/14 03:09:27;;;;;;;;;;;9.90;99.90;;;;;;5115063;27;19967;-75
2021/11/14 03:11:56;;;;;;;;;;;10.00;99.90;;;;;;5115518;27;20018;-76
2021/11/14 03:14:23;;;;;;;;;;;9.90;99.90;;;;;;5111238;27;19994;-76
2021/11/14 03:16:50;;;;;;;;;;;9.90;99.90;;;;;;5113855;27;19932;-75
2021/11/14 03:19:17;;;;;;;;;;;9.90;99.90;;;;;;5109115;27;19928;-74
2021/11/14 03:21:44;;;;;;;;;;;9.90;99.90;;;;;;5100592;27;19938;-75
2021/11/14 03:24:11;;;;;;;;;;;9.90;99.90;;;;;;5097280;27;19984;-74
2021/11/14 03:26:38;;;;;;;;;;;9.90;99.90;;;;;;5095997;27;19927;-74
2021/11/14 03:29:06;;;;;;;;;;;9.90;99.90;;;;;;5095973;27;20523;-74
2021/11/14 03:31:33;;;;;;;;;;;9.90;99.90;;;;;;5102579;27;19939;-74
2021/11/14 03:34:00;;;;;;;;;;;10.00;99.90;;;;;;5096195;27;19923;-74
2021/11/14 03:36:28;;;;;;;;;;;10.00;99.90;;;;;;5096439;27;20376;-74
2021/11/14 03:38:55;;;;;;;;;;;10.00;99.90;;;;;;5097365;27;20022;-73
2021/11/14 03:41:23;;;;;;;;;;;10.00;99.90;;;;;;5095867;27;19942;-74
2021/11/14 03:43:51;;;;;;;;;;;10.00;99.90;;;;;;5098085;27;19923;-74
2021/11/14 03:46:19;;;;;;;;;;;10.00;99.90;;;;;;5098468;27;19924;-75
2021/11/14 03:48:48;;;;;;;;;;;9.90;99.90;;;;;;5097372;27;19934;-75
2021/11/14 03:51:16;;;;;;;;;;;9.90;99.90;;;;;;5096416;27;19933;-74
2021/11/14 03:53:43;;;;;;;;;;;9.90;99.90;;;;;;5096798;27;19930;-74
2021/11/14 03:56:10;;;;;;;;;;;9.90;99.90;;;;;;5096268;27;19927;-74
2021/11/14 03:58:37;;;;;;;;;;;9.90;99.90;;;;;;5096307;27;19932;-75
2021/11/14 04:01:06;;;;;;;;;;;9.90;99.90;;;;;;5096873;27;20470;-75
2021/11/14 04:03:34;;;;;;;;;;;9.90;99.90;;;;;;5096547;27;20045;-74
2021/11/14 04:06:01;;;;;;;;;;;9.90;99.90;;;;;;5097896;27;20026;-74
2021/11/14 04:08:28;;;;;;;;;;;9.90;99.90;;;;;;5096148;27;19927;-75
2021/11/14 04:10:55;;;;;;;;;;;10.00;99.90;;;;;;5093496;27;19931;-75
2021/11/14 04:13:22;;;;;;;;;;;10.00;99.90;;;;;;5095681;27;20286;-74
2021/11/14 04:15:49;;;;;;;;;;;9.90;99.90;;;;;;5097126;27;19940;-76
2021/11/14 04:18:16;;;;;;;;;;;9.90;99.90;;;;;;5100783;27;19928;-75
2021/11/14 04:20:45;;;;;;;;;;;9.90;99.90;;;;;;5098601;27;19928;-75
2021/11/14 04:23:12;;;;;;;;;;;9.90;99.90;;;;;;5094086;27;19928;-75
2021/11/14 04:25:39;;;;;;;;;;;9.90;99.90;;;;;;5097270;27;20426;-74
2021/11/14 04:28:09;;;;;;;;;;;9.90;99.90;;;;;;5094288;27;20423;-74
2021/11/14 04:30:35;;;;;;;;;;;9.90;99.90;;;;;;5094616;27;19931;-74
2021/11/14 04:33:02;;;;;;;;;;;9.90;99.90;;;;;;5094807;27;19928;-74
2021/11/14 04:35:29;;;;;;;;;;;9.90;99.90;;;;;;5097668;27;19932;-75
2021/11/14 04:37:57;;;;;;;;;;;9.90;99.90;;;;;;5095400;27;20018;-75
2021/11/14 04:40:25;;;;;;;;;;;9.90;99.90;;;;;;5095000;27;19989;-74
2021/11/14 04:42:52;;;;;;;;;;;9.90;99.90;;;;;;5095927;27;19942;-74
2021/11/14 04:45:19;;;;;;;;;;;9.80;99.90;;;;;;5094889;27;19932;-74
2021/11/14 04:47:46;;;;;;;;;;;9.80;99.90;;;;;;5094822;27;19932;-75
2021/11/14 04:50:14;;;;;;;;;;;9.80;99.90;;;;;;5095061;27;19932;-74
2021/11/14 04:52:41;;;;;;;;;;;9.80;99.90;;;;;;5095658;27;19932;-75
2021/11/14 04:55:09;;;;;;;;;;;9.80;99.90;;;;;;5095748;27;20368;-75
2021/11/14 04:57:36;;;;;;;;;;;9.80;99.90;;;;;;5094393;27;19932;-75
2021/11/14 05:00:05;;;;;;;;;;;9.80;99.90;;;;;;5094148;27;19946;-75
2021/11/14 05:02:32;;;;;;;;;;;9.80;99.90;;;;;;5095334;27;19923;-75
2021/11/14 05:04:59;;;;;;;;;;;9.80;99.90;;;;;;5097901;27;19924;-75
2021/11/14 05:07:27;;;;;;;;;;;9.80;99.90;;;;;;5093803;27;20437;-75
2021/11/14 05:09:53;;;;;;;;;;;9.80;99.90;;;;;;5095591;27;20287;-75
2021/11/14 05:12:21;;;;;;;;;;;9.80;99.90;;;;;;5094104;27;20675;-75
2021/11/14 05:14:48;;;;;;;;;;;9.80;99.90;;;;;;5095473;28;19928;-75
2021/11/14 05:17:15;;;;;;;;;;;9.80;99.90;;;;;;5094067;28;20044;-75
2021/11/14 05:19:41;;;;;;;;;;;9.80;99.90;;;;;;5095489;28;19932;-74
2021/11/14 05:22:08;;;;;;;;;;;9.80;99.90;;;;;;5091899;28;20305;-75
2021/11/14 05:24:35;;;;;;;;;;;9.80;99.90;;;;;;5100046;28;19935;-76
2021/11/14 05:27:01;;;;;;;;;;;9.70;99.90;;;;;;5097741;28;19950;-75
2021/11/14 05:29:29;;;;;;;;;;;9.70;99.90;;;;;;5092772;28;19924;-75
2021/11/14 05:31:56;;;;;;;;;;;9.70;99.90;;;;;;5095016;28;19932;-75
2021/11/14 05:34:23;;;;;;;;;;;9.70;99.90;;;;;;5095382;27;19939;-75
2021/11/14 05:36:50;;;;;;;;;;;9.70;99.90;;;;;;5099112;27;19927;-75
2021/11/14 05:39:16;;;;;;;;;;;9.70;99.90;;;;;;5096705;27;19925;-75
2021/11/14 05:41:44;;;;;;;;;;;9.70;99.90;;;;;;5100467;27;19928;-75
2021/11/14 05:44:10;;;;;;;;;;;9.70;99.90;;;;;;5098799;27;19923;-75
2021/11/14 05:46:38;;;;;;;;;;;9.70;99.90;;;;;;5098943;27;20024;-75
2021/11/14 05:49:08;;;;;;;;;;;9.70;99.90;;;;;;5099665;27;19924;-75
2021/11/14 05:51:35;;;;;;;;;;;9.70;99.90;;;;;;5099342;27;19929;-75
2021/11/14 05:54:02;;;;;;;;;;;9.70;99.90;;;;;;5099182;27;22597;-75
2021/11/14 05:56:29;;;;;;;;;;;9.70;99.90;;;;;;5100205;27;19942;-75
2021/11/14 05:59:00;;;;;;;;;;;9.60;99.90;;;;;;5101886;27;19932;-75
2021/11/14 06:01:30;;;;;;;;;;;9.60;99.90;;;;;;5098673;27;19927;-75
2021/11/14 06:04:02;;;;;;;;;;;9.60;99.90;;;;;;5097033;27;20014;-76
2021/11/14 06:06:29;;;;;;;;;;;9.60;99.90;;;;;;5099296;27;20678;-75
2021/11/14 06:08:56;;;;;;;;;;;9.60;99.90;;;;;;5095251;27;20170;-75
2021/11/14 06:11:23;;;;;;;;;;;9.60;99.90;;;;;;5100088;27;19924;-74
2021/11/14 06:13:50;;;;;;;;;;;9.60;99.90;;;;;;5095724;27;19932;-75
2021/11/14 06:16:17;;;;;;;;;;;9.50;99.90;;;;;;5096371;27;19935;-74
2021/11/14 06:18:43;;;;;;;;;;;9.50;99.90;;;;;;5097550;27;19942;-74
2021/11/14 06:21:12;;;;;;;;;;;9.50;99.90;;;;;;5099792;27;20761;-74
2021/11/14 06:23:38;;;;;;;;;;;9.50;99.90;;;;;;5103111;27;19928;-75
2021/11/14 06:26:05;;;;;;;;;;;9.50;99.90;;;;;;5098241;27;19938;-74
2021/11/14 06:28:32;;;;;;;;;;;9.50;99.90;;;;;;5097616;27;20432;-74
2021/11/14 06:30:59;;;;;;;;;;;9.50;99.90;;;;;;5096447;27;19946;-74
2021/11/14 06:33:25;;;;;;;;;;;9.40;99.90;;;;;;5097340;27;19970;-74
2021/11/14 06:35:52;;;;;;;;;;;9.40;99.90;;;;;;5098501;27;19932;-74
2021/11/14 06:38:20;;;;;;;;;;;9.50;99.90;;;;;;5097880;27;19938;-74
2021/11/14 06:40:47;;;;;;;;;;;9.40;99.90;;;;;;5098147;27;19943;-74
2021/11/14 06:43:14;;;;;;;;;;;9.40;99.90;;;;;;5097335;27;19938;-74
2021/11/14 06:45:40;;;;;;;;;;;9.40;99.90;;;;;;5095370;27;19935;-73
2021/11/14 06:48:07;;;;;;;;;;;9.40;99.90;;;;;;5097562;27;19934;-75
2021/11/14 06:50:34;;;;;;;;;;;9.40;99.90;;;;;;5097089;27;19938;-74
2021/11/14 06:53:00;;;;;;;;;;;9.40;99.90;;;;;;5098338;27;20449;-75
2021/11/14 06:55:28;;;;;;;;;;;9.40;99.90;;;;;;5096831;27;19931;-73
2021/11/14 06:57:55;;;;;;;;;;;9.40;99.90;;;;;;5098347;27;19932;-74
2021/11/14 07:00:23;;;;;;;;;;;9.40;99.90;;;;;;5098372;27;19934;-75
2021/11/14 07:02:50;;;;;;;;;;;9.40;99.90;;;;;;5097880;27;19932;-74
2021/11/14 07:05:17;;;;;;;;;;;9.40;99.90;;;;;;5097307;27;19942;-74
2021/11/14 07:07:44;;;;;;;;;;;9.40;99.90;;;;;;5095954;27;19932;-74
2021/11/14 07:10:12;;;;;;;;;;;9.40;99.90;;;;;;5105704;27;19931;-74
2021/11/14 07:12:40;;;;;;;;;;;9.50;99.90;;;;;;5112730;27;19923;-74
2021/11/14 07:15:08;;;;;;;;;;;9.50;99.90;;;;;;5120639;27;19946;-73
2021/11/14 07:17:35;;;;;;;;;;;9.50;99.90;;;;;;5113064;27;19924;-75
2021/11/14 07:20:02;;;;;;;;;;;9.50;99.90;;;;;;5119903;27;19923;-74
2021/11/14 07:22:28;;;;;;;;;;;9.50;99.90;;;;;;5114221;28;20297;-74
2021/11/14 07:24:55;;;;;;;;;;;9.50;99.90;;;;;;5122070;27;20378;-75
2021/11/14 07:27:22;;;;;;;;;;;9.50;99.90;;;;;;5121114;27;20382;-75
2021/11/14 07:29:50;;;;;;;;;;;9.50;99.90;;;;;;5111973;27;20390;-75
2021/11/14 07:32:18;;;;;;;;;;;9.60;99.90;;;;;;5117499;27;20378;-74
2021/11/14 07:34:44;;;;;;;;;;;9.60;99.90;;;;;;5116878;27;19973;-75
2021/11/14 07:37:11;;;;;;;;;;;9.60;99.90;;;;;;5117735;27;19924;-74
2021/11/14 07:39:38;;;;;;;;;;;9.60;99.90;;;;;;5115109;27;19946;-75
2021/11/14 07:42:05;;;;;;;;;;;9.60;99.90;;;;;;5126620;27;20437;-75
2021/11/14 07:44:32;;;;;;;;;;;9.60;99.90;;;;;;5113343;27;19927;-74
2021/11/14 07:47:00;;;;;;;;;;;9.50;99.90;;;;;;5116531;27;20390;-74
2021/11/14 07:49:26;;;;;;;;;;;9.60;99.90;;;;;;5125572;27;19924;-74
2021/11/14 07:51:53;;;;;;;;;;;9.60;99.90;;;;;;5133049;27;19979;-74
2021/11/14 07:54:20;;;;;;;;;;;9.60;99.90;;;;;;5114975;27;20015;-75
2021/11/14 07:56:46;;;;;;;;;;;9.60;99.90;;;;;;5111801;27;20511;-75
2021/11/14 07:59:13;;;;;;;;;;;9.60;99.90;;;;;;5111383;28;19930;-75
2021/11/14 08:01:39;;;;;;;;;;;9.60;99.90;;;;;;5115510;27;19924;-74
2021/11/14 08:04:07;;;;;;;;;;;9.60;99.90;;;;;;5113275;27;19923;-75
2021/11/14 08:06:35;;;;;;;;;;;9.60;99.90;;;;;;5119861;27;19923;-74
2021/11/14 08:09:02;;;;;;;;;;;9.60;99.90;;;;;;5109914;27;19924;-75
2021/11/14 08:11:28;;;;;;;;;;;9.60;99.90;;;;;;5115013;27;20366;-74
2021/11/14 08:13:55;;;;;;;;;;;9.60;99.90;;;;;;5113688;28;19934;-75
2021/11/14 08:16:22;;;;;;;;;;;9.60;99.90;;;;;;5122400;27;19927;-74
2021/11/14 08:18:48;;;;;;;;;;;9.60;99.90;;;;;;5113327;28;19932;-74
2021/11/14 08:21:16;;;;;;;;;;;9.70;99.90;;;;;;5128943;27;20588;-74
2021/11/14 08:23:43;;;;;;;;;;;9.60;99.90;;;;;;5120116;27;19930;-74
2021/11/14 08:26:10;;;;;;;;;;;9.60;99.90;;;;;;5109891;28;20378;-75
2021/11/14 08:28:37;;;;;;;;;;;9.60;99.90;;;;;;5111110;28;19924;-76
2021/11/14 08:31:03;;;;;;;;;;;9.60;99.90;;;;;;5121262;27;20545;-74
2021/11/14 08:33:31;;;;;;;;;;;9.60;99.90;;;;;;5112592;28;19927;-75
2021/11/14 08:35:59;;;;;;;;;;;9.60;99.90;;;;;;5109443;28;19923;-75
2021/11/14 08:38:27;;;;;;;;;;;9.60;99.90;;;;;;5098717;28;19939;-75
2021/11/14 08:40:55;;;;;;;;;;;9.60;99.90;;;;;;5107968;27;19923;-75
2021/11/14 08:43:22;;;;;;;;;;;9.60;99.90;;;;;;5107564;28;19934;-75
2021/11/14 08:45:48;;;;;;;;;;;9.60;99.90;;;;;;5115744;27;19932;-75
2021/11/14 08:48:15;;;;;;;;;;;9.60;99.90;;;;;;5129856;27;19991;-75
2021/11/14 08:50:42;;;;;;;;;;;9.60;99.90;;;;;;5110209;27;20007;-75
2021/11/14 08:53:09;;;;;;;;;;;9.60;99.90;;;;;;5111740;28;19923;-75
2021/11/14 08:55:37;;;;;;;;;;;9.70;99.90;;;;;;5110682;27;19927;-75
2021/11/14 08:58:04;;;;;;;;;;;9.70;99.90;;;;;;5115801;27;19934;-74
2021/11/14 09:00:32;;;;;;;;;;;9.70;99.90;;;;;;5106210;28;19930;-74
2021/11/14 09:03:00;;;;;;;;;;;9.60;99.90;;;;;;5110327;28;20350;-76
2021/11/14 09:05:28;;;;;;;;;;;9.70;99.90;;;;;;5111179;27;19930;-75
2021/11/14 09:07:56;;;;;;;;;;;9.60;99.90;;;;;;5113510;28;20370;-75
2021/11/14 09:10:23;;;;;;;;;;;9.60;99.90;;;;;;5108167;28;20018;-75
2021/11/14 09:12:51;;;;;;;;;;;9.60;99.90;;;;;;5110456;28;20313;-76
2021/11/14 09:15:19;;;;;;;;;;;9.60;99.90;;;;;;5111235;28;19923;-75
2021/11/14 09:17:46;;;;;;;;;;;9.60;99.90;;;;;;5113559;28;20298;-75
2021/11/14 09:20:13;;;;;;;;;;;9.60;99.90;;;;;;5109459;28;20014;-75
2021/11/14 09:22:40;;;;;;;;;;;9.60;99.90;;;;;;5111268;28;19924;-74
2021/11/14 09:25:07;;;;;;;;;;;9.60;99.90;;;;;;5111992;28;19924;-74
2021/11/14 09:27:34;;;;;;;;;;;9.60;99.90;;;;;;5111432;28;19931;-74
2021/11/14 09:30:03;;;;;;;;;;;9.60;99.90;;;;;;5114974;28;20363;-74
2021/11/14 09:32:30;;;;;;;;;;;9.60;99.90;;;;;;5114866;28;19924;-74
2021/11/14 09:34:56;;;;;;;;;;;9.60;99.90;;;;;;5115969;28;19930;-74
2021/11/14 09:37:24;;;;;;;;;;;9.70;99.90;;;;;;5120591;28;19923;-73
2021/11/14 09:39:50;;;;;;;;;;;9.70;99.90;;;;;;5116642;28;19924;-75
2021/11/14 09:42:17;;;;;;;;;;;9.70;99.90;;;;;;5113547;28;20662;-74
2021/11/14 09:44:44;;;;;;;;;;;9.70;99.90;;;;;;5115858;28;19923;-74
2021/11/14 09:47:14;;;;;;;;;;;9.70;99.90;;;;;;5108341;28;19934;-74
2021/11/14 09:49:41;;;;;;;;;;;9.80;99.90;;;;;;5106755;28;19930;-74
2021/11/14 09:52:10;;;;;;;;;;;9.90;99.90;;;;;;5109858;28;19924;-74
2021/11/14 09:54:37;;;;;;;;;;;9.90;99.90;;;;;;5117312;28;19968;-74
2021/11/14 09:57:04;;;;;;;;;;;9.90;99.90;;;;;;5131251;28;19923;-75
2021/11/14 09:59:30;;;;;;;;;;;9.90;99.90;;;;;;5116593;28;19971;-74
2021/11/14 10:01:58;;;;;;;;;;;9.90;99.90;;;;;;5109133;28;19949;-74
2021/11/14 10:04:27;;;;;;;;;;;10.00;99.90;;;;;;5109001;28;19924;-75
2021/11/14 10:06:58;;;;;;;;;;;9.90;99.90;;;;;;5110451;28;20026;-75
2021/11/14 10:09:29;;;;;;;;;;;10.00;99.90;;;;;;5114979;28;20031;-75
2021/11/14 10:11:56;;;;;;;;;;;9.90;99.90;;;;;;5109265;28;19927;-74
2021/11/14 10:14:23;;;;;;;;;;;9.80;99.90;;;;;;5105661;28;19951;-74
2021/11/14 10:16:50;;;;;;;;;;;9.90;99.90;;;;;;5124764;28;21615;-74
2021/11/14 10:19:17;;;;;;;;;;;9.90;99.90;;;;;;5101720;28;20022;-76
2021/11/14 10:21:45;;;;;;;;;;;9.90;99.90;;;;;;5128875;27;19930;-75
2021/11/14 10:24:12;;;;;;;;;;;9.90;99.90;;;;;;5113240;27;19923;-75
2021/11/14 10:26:39;;;;;;;;;;;9.90;99.90;;;;;;5118256;27;19933;-75
2021/11/14 10:29:07;;;;;;;;;;;9.90;99.90;;;;;;5113815;28;19938;-74
2021/11/14 10:31:34;;;;;;;;;;;9.90;99.90;;;;;;5132924;27;19923;-75
2021/11/14 10:34:01;;;;;;;;;;;9.90;99.90;;;;;;5115806;27;19923;-75
2021/11/14 10:36:29;;;;;;;;;;;9.90;99.90;;;;;;5123822;27;19923;-74
2021/11/14 10:39:02;;;;;;;;;;;9.80;99.90;;;;;;5129433;27;19923;-74
2021/11/14 10:41:29;;;;;;;;;;;9.90;99.90;;;;;;5130740;27;19924;-74
2021/11/14 10:44:11;;;;;;;;;;;9.90;99.90;;;;;;5136688;27;19978;-74
2021/11/14 10:46:38;;;;;;;;;;;9.90;99.90;;;;;;5095582;28;19930;-75
2021/11/14 10:49:06;;;;;;;;;;;9.90;99.90;;;;;;5114174;28;19924;-74
2021/11/14 10:51:34;;;;;;;;;;;9.90;99.90;;;;;;5128494;27;19930;-76
2021/11/14 10:54:02;;;;;;;;;;;9.90;99.90;;;;;;5111248;28;19923;-75
2021/11/14 10:56:29;;;;;;;;;;;9.80;99.90;;;;;;5112958;27;19923;-76
2021/11/14 10:58:56;;;;;;;;;;;9.80;99.90;;;;;;5108305;27;19982;-76
2021/11/14 11:01:22;;;;;;;;;;;9.80;99.90;;;;;;5114429;27;19924;-75
2021/11/14 11:03:51;;;;;;;;;;;9.80;99.90;;;;;;5106129;27;19932;-75
2021/11/14 11:06:19;;;;;;;;;;;9.80;99.90;;;;;;5101336;27;20421;-75
2021/11/14 11:08:47;;;;;;;;;;;9.80;99.90;;;;;;5096668;27;20018;-74
2021/11/14 11:11:15;;;;;;;;;;;9.70;99.90;;;;;;5098547;27;20340;-75
2021/11/14 11:13:42;;;;;;;;;;;9.80;99.90;;;;;;5096428;27;19924;-75
2021/11/14 11:16:14;;;;;;;;;;;9.70;99.90;;;;;;5101122;27;21259;-76
2021/11/14 11:18:44;;;;;;;;;;;9.70;99.90;;;;;;5100460;27;19923;-77
2021/11/14 11:21:11;;;;;;;;;;;9.70;99.90;;;;;;5100575;27;19924;-76
2021/11/14 11:23:45;;;;;;;;;;;9.70;99.90;;;;;;5100299;27;19932;-75
2021/11/14 11:26:12;;;;;;;;;;;9.60;99.90;;;;;;5098145;27;19932;-75
2021/11/14 11:28:42;;;;;;;;;;;9.60;99.90;;;;;;5098211;27;20374;-76
2021/11/14 11:31:11;;;;;;;;;;;9.70;99.90;;;;;;5098273;27;19931;-75
2021/11/14 11:33:39;;;;;;;;;;;9.70;99.90;;;;;;5097304;27;19954;-75
2021/11/14 11:36:07;;;;;;;;;;;9.70;99.90;;;;;;5096125;27;19932;-76
2021/11/14 11:38:35;;;;;;;;;;;9.70;99.90;;;;;;5097902;27;19993;-76
2021/11/14 11:41:03;;;;;;;;;;;9.70;99.90;;;;;;5098592;27;19932;-75
2021/11/14 11:43:30;;;;;;;;;;;9.70;99.90;;;;;;5097198;27;19927;-76
2021/11/14 11:46:05;;;;;;;;;;;9.70;99.90;;;;;;5096675;27;19934;-76
2021/11/14 11:48:35;;;;;;;;;;;9.60;99.90;;;;;;5094320;27;19934;-75
2021/11/14 11:51:05;;;;;;;;;;;9.70;99.90;;;;;;5097315;27;20302;-76
2021/11/14 11:53:34;;;;;;;;;;;9.70;99.90;;;;;;5095989;27;19931;-76
2021/11/14 11:56:03;;;;;;;;;;;9.70;99.90;;;;;;5096101;27;19923;-76
2021/11/14 11:58:37;;;;;;;;;;;9.70;99.90;;;;;;5096296;27;20038;-75
2021/11/14 12:01:05;;;;;;;;;;;9.70;99.90;;;;;;5094074;27;20519;-76
2021/11/14 12:03:35;;;;;;;;;;;9.70;99.90;;;;;;5094020;27;20425;-75
2021/11/14 12:06:03;;;;;;;;;;;9.70;99.90;;;;;;5094990;27;19987;-75
2021/11/14 12:08:37;;;;;;;;;;;9.70;99.90;;;;;;5095350;27;20452;-76
2021/11/14 12:11:04;;;;;;;;;;;9.70;99.90;;;;;;5097836;27;19938;-76
2021/11/14 12:13:31;;;;;;;;;;;9.70;99.90;;;;;;5094908;27;19938;-76
2021/11/14 12:16:00;;;;;;;;;;;9.70;99.90;;;;;;5094772;27;19939;-76
2021/11/14 12:18:42;;;;;;;;;;;9.70;99.90;;;;;;5095608;27;19942;-76
2021/11/14 12:21:16;;;;;;;;;;;9.80;99.90;;;;;;5096746;27;19948;-76
2021/11/14 12:23:50;;;;;;;;;;;9.70;99.90;;;;;;5104451;27;19928;-77
2021/11/14 12:26:24;;;;;;;;;;;9.70;99.90;;;;;;5098920;27;20402;-76
2021/11/14 12:28:54;;;;;;;;;;;9.80;99.90;;;;;;5099527;27;19923;-77
2021/11/14 12:31:24;;;;;;;;;;;9.80;99.90;;;;;;5097840;27;20313;-77
2021/11/14 12:33:54;;;;;;;;;;;9.90;99.90;;;;;;5096126;27;22658;-76
2021/11/14 12:36:22;;;;;;;;;;;9.90;99.90;;;;;;5096163;27;20012;-77
2021/11/14 12:38:50;;;;;;;;;;;9.90;99.90;;;;;;5094750;27;19946;-77
2021/11/14 12:41:17;;;;;;;;;;;9.90;99.90;;;;;;5095088;27;19936;-76
2021/11/14 12:43:45;;;;;;;;;;;9.90;99.90;;;;;;5094392;27;20730;-76
2021/11/14 12:46:13;;;;;;;;;;;9.90;99.90;;;;;;5094815;27;19953;-77
2021/11/14 12:48:41;;;;;;;;;;;9.90;99.90;;;;;;5094750;27;19932;-76
2021/11/14 12:51:10;;;;;;;;;;;9.90;99.90;;;;;;5094895;27;19928;-76
2021/11/14 12:53:47;;;;;;;;;;;9.90;99.90;;;;;;5094734;27;19951;-77
2021/11/14 12:56:15;;;;;;;;;;;9.80;99.90;;;;;;5093489;27;20030;-79
2021/11/14 12:58:42;;;;;;;;;;;9.80;99.90;;;;;;5097519;27;19931;-76
2021/11/14 13:01:10;;;;;;;;;;;9.80;99.90;;;;;;5097693;27;20073;-77
2021/11/14 13:03:39;;;;;;;;;;;9.90;99.90;;;;;;5096520;27;19977;-77
2021/11/14 13:06:06;;;;;;;;;;;9.90;99.90;;;;;;5093489;27;19931;-77
2021/11/14 13:08:38;;;;;;;;;;;10.00;99.90;;;;;;5096856;27;19934;-77
2021/11/14 13:11:06;;;;;;;;;;;10.10;99.90;;;;;;5094523;27;19931;-77
2021/11/14 13:13:34;;;;;;;;;;;10.20;99.90;;;;;;5093695;27;19931;-77
2021/11/14 13:16:01;;;;;;;;;;;10.10;99.90;;;;;;5095135;28;20312;-78
2021/11/14 13:18:28;;;;;;;;;;;10.10;99.90;;;;;;5092692;28;19928;-78
2021/11/14 13:20:56;;;;;;;;;;;10.10;99.90;;;;;;5093949;28;19931;-78
2021/11/14 13:23:23;;;;;;;;;;;10.10;99.90;;;;;;5096747;28;19923;-76
2021/11/14 13:25:51;;;;;;;;;;;10.10;99.90;;;;;;5092425;28;19935;-77
2021/11/14 13:28:18;;;;;;;;;;;10.00;99.90;;;;;;5093050;28;20385;-78
2021/11/14 13:30:45;;;;;;;;;;;10.00;99.90;;;;;;5095232;28;20435;-77
2021/11/14 13:33:15;;;;;;;;;;;9.90;99.90;;;;;;5103053;28;20428;-77
2021/11/14 13:35:42;;;;;;;;;;;9.80;99.90;;;;;;5094220;28;20441;-78
2021/11/14 13:38:09;;;;;;;;;;;9.80;99.90;;;;;;5092906;28;19932;-77
2021/11/14 13:40:36;;;;;;;;;;;9.80;99.90;;;;;;5096175;28;20006;-78
2021/11/14 13:43:05;;;;;;;;;;;9.80;99.90;;;;;;5092704;28;20016;-76
2021/11/14 13:45:33;;;;;;;;;;;9.80;99.90;;;;;;5096014;28;22631;-77
2021/11/14 13:48:01;;;;;;;;;;;9.80;99.90;;;;;;5093830;28;19955;-77
2021/11/14 13:50:30;;;;;;;;;;;9.80;99.90;;;;;;5097468;28;20020;-80
2021/11/14 13:53:07;;;;;;;;;;;9.80;99.90;;;;;;5095824;28;20023;-77
2021/11/14 13:55:37;;;;;;;;;;;9.80;99.90;;;;;;5097096;27;20043;-77
2021/11/14 13:58:05;;;;;;;;;;;9.80;99.90;;;;;;5122765;27;19924;-77
2021/11/14 14:00:31;;;;;;;;;;;9.80;99.90;;;;;;5111006;27;19932;-76
2021/11/14 14:02:58;;;;;;;;;;;9.70;99.90;;;;;;5134346;27;20316;-77
2021/11/14 14:05:25;;;;;;;;;;;9.80;99.90;;;;;;5128697;27;19923;-77
2021/11/14 14:07:52;;;;;;;;;;;9.80;99.90;;;;;;5120004;27;19934;-76
2021/11/14 14:10:20;;;;;;;;;;;9.80;99.90;;;;;;5126392;27;20390;-77
2021/11/14 14:12:47;;;;;;;;;;;9.80;99.90;;;;;;5108169;27;19930;-78
2021/11/14 14:15:17;;;;;;;;;;;9.80;99.90;;;;;;5125942;27;20359;-77
2021/11/14 14:17:46;;;;;;;;;;;9.80;99.90;;;;;;5134582;27;19969;-77
2021/11/14 14:20:14;;;;;;;;;;;9.80;99.90;;;;;;5128369;27;19923;-77
2021/11/14 14:22:42;;;;;;;;;;;9.90;99.90;;;;;;5114129;27;19924;-77
2021/11/14 14:25:10;;;;;;;;;;;9.90;99.90;;;;;;5120637;27;19930;-77
2021/11/14 14:27:39;;;;;;;;;;;9.90;99.90;;;;;;5125944;27;19924;-77
2021/11/14 14:30:07;;;;;;;;;;;9.80;99.90;;;;;;5122092;27;20027;-77